sensor_id;sensor_type;location;lat;lon;timestamp;pressure;altitude;pressure_sealevel;temperature;humidity
71666;BME280;59503;53.486;10.196;2023-12-29T00:00:30;100432.97;;;9.27;100.00
71666;BME280;59503;53.486;10.196;2023-12-29T00:02:55;100451.50;;;9.25;100.00
71666;BME280;59503;53.486;10.196;2023-12-29T00:05:21;100452.69;;;9.05;100.00
71666;BME280;59503;53.486;10.196;2023-12-29T00:07:46;100457.97;;;8.78;100.00
71666;BME280;59503;53.486;10.196;2023-12-29T00:10:12;100454.56;;;8.82;100.00
71666;BME280;59503;53.486;10.196;2023-12-29T00:12:37;100461.66;;;8.70;100.00
71666;BME280;59503;53.486;10.196;2023-12-29T00:15:03;100440.69;;;8.48;100.00
71666;BME280;59503;53.486;10.196;2023-12-29T00:17:29;100448.13;;;8.51;100.00
71666;BME280;59503;53.486;10.196;2023-12-29T00:19:55;100453.28;;;8.41;100.00
71666;BME280;59503;53.486;10.196;2023-12-29T00:22:20;100456.63;;;8.34;100.00
71666;BME280;59503;53.486;10.196;2023-12-29T00:24:46;100451.94;;;8.31;100.00
71666;BME280;59503;53.486;10.196;2023-12-29T00:27:13;100451.41;;;8.26;100.00
71666;BME280;59503;53.486;10.196;2023-12-29T00:29:39;100434.81;;;8.27;100.00
71666;BME280;59503;53.486;10.196;2023-12-29T00:32:05;100442.31;;;8.34;100.00
71666;BME280;59503;53.486;10.196;2023-12-29T00:34:30;100426.41;;;8.32;100.00
71666;BME280;59503;53.486;10.196;2023-12-29T00:36:56;100423.50;;;8.41;100.00
71666;BME280;59503;53.486;10.196;2023-12-29T00:39:21;100421.22;;;8.43;100.00
71666;BME280;59503;53.486;10.196;2023-12-29T00:41:54;100408.41;;;8.40;100.00
71666;BME280;59503;53.486;10.196;2023-12-29T00:44:21;100401.13;;;8.44;100.00
71666;BME280;59503;53.486;10.196;2023-12-29T00:46:46;100402.34;;;8.46;100.00
71666;BME280;59503;53.486;10.196;2023-12-29T00:49:12;100390.06;;;8.52;100.00
71666;BME280;59503;53.486;10.196;2023-12-29T00:51:40;100380.94;;;8.60;100.00
71666;BME280;59503;53.486;10.196;2023-12-29T00:54:07;100376.25;;;8.76;100.00
71666;BME280;59503;53.486;10.196;2023-12-29T00:56:32;100384.84;;;8.82;100.00
71666;BME280;59503;53.486;10.196;2023-12-29T00:58:58;100387.63;;;8.86;100.00
71666;BME280;59503;53.486;10.196;2023-12-29T01:01:23;100380.94;;;8.79;100.00
71666;BME280;59503;53.486;10.196;2023-12-29T01:03:49;100372.47;;;8.81;100.00
71666;BME280;59503;53.486;10.196;2023-12-29T01:06:14;100375.25;;;8.85;100.00
71666;BME280;59503;53.486;10.196;2023-12-29T01:08:40;100379.22;;;8.91;100.00
71666;BME280;59503;53.486;10.196;2023-12-29T01:11:05;100377.66;;;8.90;100.00
71666;BME280;59503;53.486;10.196;2023-12-29T01:13:31;100375.81;;;8.94;100.00
71666;BME280;59503;53.486;10.196;2023-12-29T01:15:57;100354.81;;;8.91;100.00
71666;BME280;59503;53.486;10.196;2023-12-29T01:18:22;100357.97;;;8.93;100.00
71666;BME280;59503;53.486;10.196;2023-12-29T01:20:48;100370.91;;;9.03;100.00
71666;BME280;59503;53.486;10.196;2023-12-29T01:23:13;100366.59;;;8.98;100.00
71666;BME280;59503;53.486;10.196;2023-12-29T01:25:39;100352.31;;;9.01;100.00
71666;BME280;59503;53.486;10.196;2023-12-29T01:28:04;100363.09;;;8.98;100.00
71666;BME280;59503;53.486;10.196;2023-12-29T01:30:30;100360.81;;;9.00;100.00
71666;BME280;59503;53.486;10.196;2023-12-29T01:32:55;100362.41;;;9.04;100.00
71666;BME280;59503;53.486;10.196;2023-12-29T01:35:21;100358.22;;;9.07;100.00
71666;BME280;59503;53.486;10.196;2023-12-29T01:37:46;100360.88;;;9.03;100.00
71666;BME280;59503;53.486;10.196;2023-12-29T01:40:12;100361.81;;;8.92;100.00
71666;BME280;59503;53.486;10.196;2023-12-29T01:42:37;100367.47;;;8.83;100.00
71666;BME280;59503;53.486;10.196;2023-12-29T01:45:03;100383.16;;;8.93;100.00
71666;BME280;59503;53.486;10.196;2023-12-29T01:47:30;100384.34;;;8.96;100.00
71666;BME280;59503;53.486;10.196;2023-12-29T01:49:56;100385.44;;;8.91;100.00
71666;BME280;59503;53.486;10.196;2023-12-29T01:52:22;100363.44;;;8.96;100.00
71666;BME280;59503;53.486;10.196;2023-12-29T01:54:50;100359.66;;;9.01;100.00
71666;BME280;59503;53.486;10.196;2023-12-29T01:57:17;100353.47;;;9.00;100.00
71666;BME280;59503;53.486;10.196;2023-12-29T01:59:43;100361.59;;;9.00;100.00
71666;BME280;59503;53.486;10.196;2023-12-29T02:02:10;100357.97;;;8.93;100.00
71666;BME280;59503;53.486;10.196;2023-12-29T02:04:36;100362.84;;;8.84;100.00
71666;BME280;59503;53.486;10.196;2023-12-29T02:07:02;100360.91;;;8.84;100.00
71666;BME280;59503;53.486;10.196;2023-12-29T02:09:28;100349.28;;;8.84;100.00
71666;BME280;59503;53.486;10.196;2023-12-29T02:11:54;100346.06;;;8.78;100.00
71666;BME280;59503;53.486;10.196;2023-12-29T02:14:20;100351.94;;;8.80;100.00
71666;BME280;59503;53.486;10.196;2023-12-29T02:16:56;100346.81;;;8.75;100.00
71666;BME280;59503;53.486;10.196;2023-12-29T02:19:37;100346.00;;;8.74;100.00
71666;BME280;59503;53.486;10.196;2023-12-29T02:22:04;100347.47;;;8.68;100.00
71666;BME280;59503;53.486;10.196;2023-12-29T02:24:29;100340.44;;;8.67;100.00
71666;BME280;59503;53.486;10.196;2023-12-29T02:27:06;100339.72;;;8.70;100.00
71666;BME280;59503;53.486;10.196;2023-12-29T02:29:35;100334.31;;;8.70;100.00
71666;BME280;59503;53.486;10.196;2023-12-29T02:32:06;100306.69;;;8.61;100.00
71666;BME280;59503;53.486;10.196;2023-12-29T02:34:36;100320.47;;;8.75;100.00
71666;BME280;59503;53.486;10.196;2023-12-29T02:37:03;100315.91;;;8.79;100.00
71666;BME280;59503;53.486;10.196;2023-12-29T02:39:29;100297.66;;;8.76;100.00
71666;BME280;59503;53.486;10.196;2023-12-29T02:41:54;100301.19;;;8.80;100.00
71666;BME280;59503;53.486;10.196;2023-12-29T02:44:21;100303.91;;;8.80;100.00
71666;BME280;59503;53.486;10.196;2023-12-29T02:46:46;100299.22;;;8.77;100.00
71666;BME280;59503;53.486;10.196;2023-12-29T02:49:12;100290.97;;;8.70;100.00
71666;BME280;59503;53.486;10.196;2023-12-29T02:51:38;100297.50;;;8.89;100.00
71666;BME280;59503;53.486;10.196;2023-12-29T02:54:05;100284.94;;;8.80;100.00
71666;BME280;59503;53.486;10.196;2023-12-29T02:56:31;100288.16;;;8.86;100.00
71666;BME280;59503;53.486;10.196;2023-12-29T02:58:56;100271.81;;;8.82;100.00
71666;BME280;59503;53.486;10.196;2023-12-29T03:01:22;100302.44;;;8.83;100.00
71666;BME280;59503;53.486;10.196;2023-12-29T03:03:47;100294.72;;;8.85;100.00
71666;BME280;59503;53.486;10.196;2023-12-29T03:06:13;100286.47;;;8.78;100.00
71666;BME280;59503;53.486;10.196;2023-12-29T03:08:38;100283.88;;;8.85;100.00
71666;BME280;59503;53.486;10.196;2023-12-29T03:11:04;100281.84;;;8.78;100.00
71666;BME280;59503;53.486;10.196;2023-12-29T03:13:29;100272.84;;;8.74;100.00
71666;BME280;59503;53.486;10.196;2023-12-29T03:15:55;100277.91;;;8.76;100.00
71666;BME280;59503;53.486;10.196;2023-12-29T03:18:20;100274.00;;;8.73;100.00
71666;BME280;59503;53.486;10.196;2023-12-29T03:20:45;100276.88;;;8.61;100.00
71666;BME280;59503;53.486;10.196;2023-12-29T03:23:11;100278.44;;;8.62;100.00
71666;BME280;59503;53.486;10.196;2023-12-29T03:25:37;100274.81;;;8.55;100.00
71666;BME280;59503;53.486;10.196;2023-12-29T03:28:02;100260.00;;;8.49;100.00
71666;BME280;59503;53.486;10.196;2023-12-29T03:30:28;100258.81;;;8.46;100.00
71666;BME280;59503;53.486;10.196;2023-12-29T03:32:53;100261.66;;;8.34;100.00
71666;BME280;59503;53.486;10.196;2023-12-29T03:35:18;100251.41;;;8.24;100.00
71666;BME280;59503;53.486;10.196;2023-12-29T03:37:44;100253.22;;;8.20;100.00
71666;BME280;59503;53.486;10.196;2023-12-29T03:40:09;100270.25;;;8.21;100.00
71666;BME280;59503;53.486;10.196;2023-12-29T03:42:35;100245.81;;;8.17;100.00
71666;BME280;59503;53.486;10.196;2023-12-29T03:45:00;100239.91;;;8.12;100.00
71666;BME280;59503;53.486;10.196;2023-12-29T03:47:26;100229.00;;;8.08;100.00
71666;BME280;59503;53.486;10.196;2023-12-29T03:49:51;100225.03;;;8.02;100.00
71666;BME280;59503;53.486;10.196;2023-12-29T03:52:16;100219.25;;;8.04;100.00
71666;BME280;59503;53.486;10.196;2023-12-29T03:54:42;100235.94;;;8.06;100.00
71666;BME280;59503;53.486;10.196;2023-12-29T03:57:07;100233.22;;;8.06;100.00
71666;BME280;59503;53.486;10.196;2023-12-29T03:59:36;100238.72;;;8.09;100.00
71666;BME280;59503;53.486;10.196;2023-12-29T04:02:02;100239.16;;;8.11;100.00
71666;BME280;59503;53.486;10.196;2023-12-29T04:04:28;100250.66;;;8.08;100.00
71666;BME280;59503;53.486;10.196;2023-12-29T04:06:53;100262.06;;;8.17;100.00
71666;BME280;59503;53.486;10.196;2023-12-29T04:09:18;100289.84;;;8.14;100.00
71666;BME280;59503;53.486;10.196;2023-12-29T04:11:44;100263.34;;;8.04;100.00
71666;BME280;59503;53.486;10.196;2023-12-29T04:14:09;100312.47;;;7.87;100.00
71666;BME280;59503;53.486;10.196;2023-12-29T04:16:38;100341.06;;;7.69;100.00
71666;BME280;59503;53.486;10.196;2023-12-29T04:19:03;100346.66;;;7.29;100.00
71666;BME280;59503;53.486;10.196;2023-12-29T04:21:28;100336.91;;;6.94;100.00
71666;BME280;59503;53.486;10.196;2023-12-29T04:23:54;100341.28;;;6.71;100.00
71666;BME280;59503;53.486;10.196;2023-12-29T04:26:19;100357.88;;;6.57;100.00
71666;BME280;59503;53.486;10.196;2023-12-29T04:28:44;100358.13;;;6.52;100.00
71666;BME280;59503;53.486;10.196;2023-12-29T04:31:09;100368.41;;;6.47;100.00
71666;BME280;59503;53.486;10.196;2023-12-29T04:33:35;100382.91;;;6.42;100.00
71666;BME280;59503;53.486;10.196;2023-12-29T04:36:00;100383.06;;;6.33;100.00
71666;BME280;59503;53.486;10.196;2023-12-29T04:38:25;100374.84;;;6.30;100.00
71666;BME280;59503;53.486;10.196;2023-12-29T04:40:51;100336.09;;;6.22;100.00
71666;BME280;59503;53.486;10.196;2023-12-29T04:43:16;100334.31;;;6.14;100.00
71666;BME280;59503;53.486;10.196;2023-12-29T04:45:41;100307.47;;;6.06;100.00
71666;BME280;59503;53.486;10.196;2023-12-29T04:48:07;100317.38;;;6.02;100.00
71666;BME280;59503;53.486;10.196;2023-12-29T04:50:32;100326.72;;;5.92;100.00
71666;BME280;59503;53.486;10.196;2023-12-29T04:52:57;100314.56;;;5.98;100.00
71666;BME280;59503;53.486;10.196;2023-12-29T04:55:22;100322.13;;;5.93;100.00
71666;BME280;59503;53.486;10.196;2023-12-29T04:57:48;100327.31;;;5.86;100.00
71666;BME280;59503;53.486;10.196;2023-12-29T05:00:13;100336.09;;;5.83;100.00
71666;BME280;59503;53.486;10.196;2023-12-29T05:02:39;100343.47;;;5.74;100.00
71666;BME280;59503;53.486;10.196;2023-12-29T05:05:04;100323.69;;;5.70;100.00
71666;BME280;59503;53.486;10.196;2023-12-29T05:07:30;100331.34;;;5.68;100.00
71666;BME280;59503;53.486;10.196;2023-12-29T05:09:55;100323.56;;;5.66;100.00
71666;BME280;59503;53.486;10.196;2023-12-29T05:12:20;100319.78;;;5.67;100.00
71666;BME280;59503;53.486;10.196;2023-12-29T05:14:46;100304.69;;;5.66;100.00
71666;BME280;59503;53.486;10.196;2023-12-29T05:17:11;100305.94;;;5.69;100.00
71666;BME280;59503;53.486;10.196;2023-12-29T05:19:36;100317.72;;;5.76;100.00
71666;BME280;59503;53.486;10.196;2023-12-29T05:22:02;100320.88;;;5.78;100.00
71666;BME280;59503;53.486;10.196;2023-12-29T05:24:27;100316.72;;;5.81;100.00
71666;BME280;59503;53.486;10.196;2023-12-29T05:26:53;100303.91;;;5.78;100.00
71666;BME280;59503;53.486;10.196;2023-12-29T05:29:18;100308.97;;;5.79;100.00
71666;BME280;59503;53.486;10.196;2023-12-29T05:31:43;100299.75;;;5.80;100.00
71666;BME280;59503;53.486;10.196;2023-12-29T05:34:09;100309.41;;;5.81;100.00
71666;BME280;59503;53.486;10.196;2023-12-29T05:36:36;100303.47;;;5.88;100.00
71666;BME280;59503;53.486;10.196;2023-12-29T05:39:02;100312.00;;;5.90;100.00
71666;BME280;59503;53.486;10.196;2023-12-29T05:41:29;100306.50;;;5.86;100.00
71666;BME280;59503;53.486;10.196;2023-12-29T05:43:54;100314.91;;;5.97;100.00
71666;BME280;59503;53.486;10.196;2023-12-29T05:46:20;100305.84;;;5.89;100.00
71666;BME280;59503;53.486;10.196;2023-12-29T05:48:46;100311.00;;;5.94;100.00
71666;BME280;59503;53.486;10.196;2023-12-29T05:51:13;100309.75;;;5.92;100.00
71666;BME280;59503;53.486;10.196;2023-12-29T05:53:41;100318.28;;;5.94;100.00
71666;BME280;59503;53.486;10.196;2023-12-29T05:56:07;100326.59;;;6.01;100.00
71666;BME280;59503;53.486;10.196;2023-12-29T05:58:32;100327.81;;;6.03;100.00
71666;BME280;59503;53.486;10.196;2023-12-29T06:00:58;100315.91;;;6.04;100.00
71666;BME280;59503;53.486;10.196;2023-12-29T06:03:26;100309.94;;;6.11;100.00
71666;BME280;59503;53.486;10.196;2023-12-29T06:05:52;100313.84;;;6.13;100.00
71666;BME280;59503;53.486;10.196;2023-12-29T06:08:17;100300.09;;;6.18;100.00
71666;BME280;59503;53.486;10.196;2023-12-29T06:10:42;100298.31;;;6.22;100.00
71666;BME280;59503;53.486;10.196;2023-12-29T06:13:08;100296.16;;;6.28;100.00
71666;BME280;59503;53.486;10.196;2023-12-29T06:15:33;100306.84;;;6.24;100.00
71666;BME280;59503;53.486;10.196;2023-12-29T06:17:59;100314.94;;;6.24;100.00
71666;BME280;59503;53.486;10.196;2023-12-29T06:20:24;100318.63;;;6.32;100.00
71666;BME280;59503;53.486;10.196;2023-12-29T06:22:50;100323.16;;;6.28;100.00
71666;BME280;59503;53.486;10.196;2023-12-29T06:25:15;100316.50;;;6.25;100.00
71666;BME280;59503;53.486;10.196;2023-12-29T06:27:41;100323.91;;;6.28;100.00
71666;BME280;59503;53.486;10.196;2023-12-29T06:30:09;100325.06;;;6.27;100.00
71666;BME280;59503;53.486;10.196;2023-12-29T06:32:38;100322.00;;;6.29;100.00
71666;BME280;59503;53.486;10.196;2023-12-29T06:35:05;100341.78;;;6.33;100.00
71666;BME280;59503;53.486;10.196;2023-12-29T06:37:31;100344.59;;;6.37;100.00
71666;BME280;59503;53.486;10.196;2023-12-29T06:39:56;100349.09;;;6.32;100.00
71666;BME280;59503;53.486;10.196;2023-12-29T06:42:21;100328.53;;;6.28;100.00
71666;BME280;59503;53.486;10.196;2023-12-29T06:44:48;100330.91;;;6.29;100.00
71666;BME280;59503;53.486;10.196;2023-12-29T06:47:13;100338.66;;;6.31;100.00
71666;BME280;59503;53.486;10.196;2023-12-29T06:49:39;100341.00;;;6.32;100.00
71666;BME280;59503;53.486;10.196;2023-12-29T06:52:04;100350.31;;;6.35;100.00
71666;BME280;59503;53.486;10.196;2023-12-29T06:54:30;100345.03;;;6.39;100.00
71666;BME280;59503;53.486;10.196;2023-12-29T06:56:55;100333.16;;;6.55;100.00
71666;BME280;59503;53.486;10.196;2023-12-29T06:59:22;100331.94;;;6.53;100.00
71666;BME280;59503;53.486;10.196;2023-12-29T07:01:47;100332.03;;;6.56;100.00
71666;BME280;59503;53.486;10.196;2023-12-29T07:04:13;100323.06;;;6.68;100.00
71666;BME280;59503;53.486;10.196;2023-12-29T07:06:41;100330.72;;;6.66;100.00
71666;BME280;59503;53.486;10.196;2023-12-29T07:09:06;100328.28;;;6.61;100.00
71666;BME280;59503;53.486;10.196;2023-12-29T07:11:33;100324.03;;;6.60;100.00
71666;BME280;59503;53.486;10.196;2023-12-29T07:13:58;100333.16;;;6.55;100.00
71666;BME280;59503;53.486;10.196;2023-12-29T07:16:23;100327.56;;;6.48;100.00
71666;BME280;59503;53.486;10.196;2023-12-29T07:18:49;100324.88;;;6.48;100.00
71666;BME280;59503;53.486;10.196;2023-12-29T07:21:15;100324.31;;;6.43;100.00
71666;BME280;59503;53.486;10.196;2023-12-29T07:23:41;100324.75;;;6.45;100.00
71666;BME280;59503;53.486;10.196;2023-12-29T07:26:07;100326.66;;;6.44;100.00
71666;BME280;59503;53.486;10.196;2023-12-29T07:28:32;100328.25;;;6.45;100.00
71666;BME280;59503;53.486;10.196;2023-12-29T07:30:58;100335.56;;;6.45;100.00
71666;BME280;59503;53.486;10.196;2023-12-29T07:33:23;100340.97;;;6.45;100.00
71666;BME280;59503;53.486;10.196;2023-12-29T07:35:49;100329.81;;;6.46;100.00
71666;BME280;59503;53.486;10.196;2023-12-29T07:38:15;100320.56;;;6.47;100.00
71666;BME280;59503;53.486;10.196;2023-12-29T07:40:40;100319.91;;;6.50;100.00
71666;BME280;59503;53.486;10.196;2023-12-29T07:43:06;100296.03;;;6.52;100.00
71666;BME280;59503;53.486;10.196;2023-12-29T07:45:31;100307.63;;;6.53;100.00
71666;BME280;59503;53.486;10.196;2023-12-29T07:47:56;100317.03;;;6.59;100.00
71666;BME280;59503;53.486;10.196;2023-12-29T07:50:22;100321.41;;;6.63;100.00
71666;BME280;59503;53.486;10.196;2023-12-29T07:52:47;100331.53;;;6.66;100.00
71666;BME280;59503;53.486;10.196;2023-12-29T07:55:13;100319.69;;;6.71;100.00
71666;BME280;59503;53.486;10.196;2023-12-29T07:57:41;100318.72;;;6.79;100.00
71666;BME280;59503;53.486;10.196;2023-12-29T08:00:07;100329.47;;;6.91;100.00
71666;BME280;59503;53.486;10.196;2023-12-29T08:02:32;100308.03;;;6.98;100.00
71666;BME280;59503;53.486;10.196;2023-12-29T08:04:58;100319.22;;;7.12;100.00
71666;BME280;59503;53.486;10.196;2023-12-29T08:07:23;100312.84;;;7.04;100.00
71666;BME280;59503;53.486;10.196;2023-12-29T08:09:49;100324.63;;;7.12;100.00
71666;BME280;59503;53.486;10.196;2023-12-29T08:12:14;100320.41;;;7.14;100.00
71666;BME280;59503;53.486;10.196;2023-12-29T08:14:39;100325.91;;;7.18;100.00
71666;BME280;59503;53.486;10.196;2023-12-29T08:17:05;100320.94;;;7.20;100.00
71666;BME280;59503;53.486;10.196;2023-12-29T08:19:32;100322.50;;;7.21;100.00
71666;BME280;59503;53.486;10.196;2023-12-29T08:21:57;100307.88;;;7.22;100.00
71666;BME280;59503;53.486;10.196;2023-12-29T08:24:22;100300.88;;;7.21;100.00
71666;BME280;59503;53.486;10.196;2023-12-29T08:26:48;100301.69;;;7.21;100.00
71666;BME280;59503;53.486;10.196;2023-12-29T08:29:14;100314.13;;;7.26;100.00
71666;BME280;59503;53.486;10.196;2023-12-29T08:31:41;100315.72;;;7.27;100.00
71666;BME280;59503;53.486;10.196;2023-12-29T08:34:07;100309.16;;;7.28;100.00
71666;BME280;59503;53.486;10.196;2023-12-29T08:36:32;100301.31;;;7.23;100.00
71666;BME280;59503;53.486;10.196;2023-12-29T08:38:58;100310.31;;;7.27;100.00
71666;BME280;59503;53.486;10.196;2023-12-29T08:41:23;100328.09;;;7.28;100.00
71666;BME280;59503;53.486;10.196;2023-12-29T08:43:49;100318.16;;;7.32;100.00
71666;BME280;59503;53.486;10.196;2023-12-29T08:46:14;100320.69;;;7.40;100.00
71666;BME280;59503;53.486;10.196;2023-12-29T08:48:39;100321.63;;;7.48;100.00
71666;BME280;59503;53.486;10.196;2023-12-29T08:51:05;100313.41;;;7.60;100.00
71666;BME280;59503;53.486;10.196;2023-12-29T08:53:31;100323.06;;;7.61;100.00
71666;BME280;59503;53.486;10.196;2023-12-29T08:55:59;100338.53;;;7.61;100.00
71666;BME280;59503;53.486;10.196;2023-12-29T08:58:24;100327.63;;;7.57;100.00
71666;BME280;59503;53.486;10.196;2023-12-29T09:00:49;100336.59;;;7.61;100.00
71666;BME280;59503;53.486;10.196;2023-12-29T09:03:15;100335.75;;;7.57;100.00
71666;BME280;59503;53.486;10.196;2023-12-29T09:05:40;100323.44;;;7.59;100.00
71666;BME280;59503;53.486;10.196;2023-12-29T09:08:05;100324.94;;;7.57;100.00
71666;BME280;59503;53.486;10.196;2023-12-29T09:10:31;100331.19;;;7.61;100.00
71666;BME280;59503;53.486;10.196;2023-12-29T09:12:56;100323.75;;;7.74;100.00
71666;BME280;59503;53.486;10.196;2023-12-29T09:15:22;100319.81;;;7.87;100.00
71666;BME280;59503;53.486;10.196;2023-12-29T09:17:48;100313.47;;;7.98;100.00
71666;BME280;59503;53.486;10.196;2023-12-29T09:20:13;100310.50;;;8.03;100.00
71666;BME280;59503;53.486;10.196;2023-12-29T09:22:40;100296.56;;;8.01;100.00
71666;BME280;59503;53.486;10.196;2023-12-29T09:25:05;100295.84;;;8.04;100.00
71666;BME280;59503;53.486;10.196;2023-12-29T09:27:31;100291.19;;;8.05;100.00
71666;BME280;59503;53.486;10.196;2023-12-29T09:29:56;100297.16;;;7.95;100.00
71666;BME280;59503;53.486;10.196;2023-12-29T09:32:21;100300.94;;;7.90;100.00
71666;BME280;59503;53.486;10.196;2023-12-29T09:34:46;100293.97;;;7.89;100.00
71666;BME280;59503;53.486;10.196;2023-12-29T09:37:12;100290.91;;;7.91;100.00
71666;BME280;59503;53.486;10.196;2023-12-29T09:39:37;100305.16;;;7.88;100.00
71666;BME280;59503;53.486;10.196;2023-12-29T09:42:03;100330.59;;;7.68;100.00
71666;BME280;59503;53.486;10.196;2023-12-29T09:44:30;100353.38;;;7.51;100.00
71666;BME280;59503;53.486;10.196;2023-12-29T09:47:00;100368.81;;;7.35;100.00
71666;BME280;59503;53.486;10.196;2023-12-29T09:49:38;100395.75;;;7.16;100.00
71666;BME280;59503;53.486;10.196;2023-12-29T09:52:07;100386.94;;;7.03;100.00
71666;BME280;59503;53.486;10.196;2023-12-29T09:54:35;100389.78;;;6.95;100.00
71666;BME280;59503;53.486;10.196;2023-12-29T09:57:03;100379.50;;;6.85;100.00
71666;BME280;59503;53.486;10.196;2023-12-29T09:59:30;100360.47;;;6.81;100.00
71666;BME280;59503;53.486;10.196;2023-12-29T10:01:57;100378.75;;;6.72;100.00
71666;BME280;59503;53.486;10.196;2023-12-29T10:04:22;100378.72;;;6.57;100.00
71666;BME280;59503;53.486;10.196;2023-12-29T10:06:48;100386.38;;;6.55;100.00
71666;BME280;59503;53.486;10.196;2023-12-29T10:09:15;100386.72;;;6.53;100.00
71666;BME280;59503;53.486;10.196;2023-12-29T10:11:44;100377.50;;;6.42;100.00
71666;BME280;59503;53.486;10.196;2023-12-29T10:14:35;100379.00;;;6.40;100.00
71666;BME280;59503;53.486;10.196;2023-12-29T10:17:08;100371.53;;;6.49;100.00
71666;BME280;59503;53.486;10.196;2023-12-29T10:19:40;100366.13;;;6.49;100.00
71666;BME280;59503;53.486;10.196;2023-12-29T10:22:21;100354.66;;;6.52;100.00
71666;BME280;59503;53.486;10.196;2023-12-29T10:24:51;100358.47;;;6.51;100.00
71666;BME280;59503;53.486;10.196;2023-12-29T10:27:16;100341.50;;;6.50;100.00
71666;BME280;59503;53.486;10.196;2023-12-29T10:29:42;100351.72;;;6.57;100.00
71666;BME280;59503;53.486;10.196;2023-12-29T10:32:07;100355.63;;;6.59;100.00
71666;BME280;59503;53.486;10.196;2023-12-29T10:34:32;100359.47;;;6.58;100.00
71666;BME280;59503;53.486;10.196;2023-12-29T10:36:58;100359.56;;;6.62;100.00
71666;BME280;59503;53.486;10.196;2023-12-29T10:39:24;100363.03;;;6.62;100.00
71666;BME280;59503;53.486;10.196;2023-12-29T10:41:50;100365.06;;;6.65;100.00
71666;BME280;59503;53.486;10.196;2023-12-29T10:44:27;100362.88;;;6.71;100.00
71666;BME280;59503;53.486;10.196;2023-12-29T10:46:52;100359.75;;;6.69;100.00
71666;BME280;59503;53.486;10.196;2023-12-29T10:49:18;100364.72;;;6.67;100.00
71666;BME280;59503;53.486;10.196;2023-12-29T10:51:43;100354.28;;;6.65;100.00
71666;BME280;59503;53.486;10.196;2023-12-29T10:54:19;100355.69;;;6.75;100.00
71666;BME280;59503;53.486;10.196;2023-12-29T10:56:44;100362.75;;;6.79;100.00
71666;BME280;59503;53.486;10.196;2023-12-29T10:59:12;100364.66;;;6.79;100.00
71666;BME280;59503;53.486;10.196;2023-12-29T11:01:37;100353.28;;;6.85;100.00
71666;BME280;59503;53.486;10.196;2023-12-29T11:04:05;100342.56;;;6.89;100.00
71666;BME280;59503;53.486;10.196;2023-12-29T11:06:41;100356.22;;;6.96;100.00
71666;BME280;59503;53.486;10.196;2023-12-29T11:09:10;100343.50;;;6.96;100.00
71666;BME280;59503;53.486;10.196;2023-12-29T11:11:36;100349.19;;;7.07;100.00
71666;BME280;59503;53.486;10.196;2023-12-29T11:14:02;100336.97;;;7.13;100.00
71666;BME280;59503;53.486;10.196;2023-12-29T11:16:29;100336.81;;;7.21;100.00
71666;BME280;59503;53.486;10.196;2023-12-29T11:18:56;100332.38;;;7.29;100.00
71666;BME280;59503;53.486;10.196;2023-12-29T11:21:26;100324.38;;;7.32;100.00
71666;BME280;59503;53.486;10.196;2023-12-29T11:23:51;100328.28;;;7.35;100.00
71666;BME280;59503;53.486;10.196;2023-12-29T11:26:18;100326.53;;;7.42;100.00
71666;BME280;59503;53.486;10.196;2023-12-29T11:28:46;100333.84;;;7.42;100.00
71666;BME280;59503;53.486;10.196;2023-12-29T11:31:15;100326.19;;;7.44;100.00
71666;BME280;59503;53.486;10.196;2023-12-29T11:33:44;100328.84;;;7.59;100.00
71666;BME280;59503;53.486;10.196;2023-12-29T11:36:20;100335.22;;;7.67;100.00
71666;BME280;59503;53.486;10.196;2023-12-29T11:41:56;100330.34;;;7.57;100.00
71666;BME280;59503;53.486;10.196;2023-12-29T11:44:26;100316.38;;;7.55;100.00
71666;BME280;59503;53.486;10.196;2023-12-29T11:46:58;100320.41;;;7.45;100.00
71666;BME280;59503;53.486;10.196;2023-12-29T11:49:25;100316.91;;;7.45;100.00
71666;BME280;59503;53.486;10.196;2023-12-29T11:51:50;100316.75;;;7.38;100.00
71666;BME280;59503;53.486;10.196;2023-12-29T11:54:26;100312.84;;;7.35;100.00
71666;BME280;59503;53.486;10.196;2023-12-29T11:56:54;100312.84;;;7.35;100.00
71666;BME280;59503;53.486;10.196;2023-12-29T11:59:25;100302.78;;;7.36;100.00
71666;BME280;59503;53.486;10.196;2023-12-29T12:01:58;100316.47;;;7.43;100.00
71666;BME280;59503;53.486;10.196;2023-12-29T12:04:42;100309.97;;;7.44;100.00
71666;BME280;59503;53.486;10.196;2023-12-29T12:07:13;100302.25;;;7.46;100.00
71666;BME280;59503;53.486;10.196;2023-12-29T12:09:38;100301.22;;;7.50;100.00
71666;BME280;59503;53.486;10.196;2023-12-29T12:12:05;100277.72;;;7.54;100.00
71666;BME280;59503;53.486;10.196;2023-12-29T12:14:52;100276.25;;;7.57;100.00
71666;BME280;59503;53.486;10.196;2023-12-29T12:17:33;100286.34;;;7.60;100.00
71666;BME280;59503;53.486;10.196;2023-12-29T12:20:09;100291.69;;;7.56;100.00
71666;BME280;59503;53.486;10.196;2023-12-29T12:22:35;100288.63;;;7.58;100.00
71666;BME280;59503;53.486;10.196;2023-12-29T12:25:02;100287.59;;;7.63;100.00
71666;BME280;59503;53.486;10.196;2023-12-29T12:27:28;100298.53;;;7.70;100.00
71666;BME280;59503;53.486;10.196;2023-12-29T12:29:55;100297.66;;;7.81;100.00
71666;BME280;59503;53.486;10.196;2023-12-29T12:32:23;100296.78;;;7.77;100.00
71666;BME280;59503;53.486;10.196;2023-12-29T12:34:48;100286.69;;;7.74;100.00
71666;BME280;59503;53.486;10.196;2023-12-29T12:37:19;100279.13;;;7.64;100.00
71666;BME280;59503;53.486;10.196;2023-12-29T12:39:44;100286.81;;;7.62;100.00